Time;durP1;ratioP1;P1;durP2;ratioP2;P2;SDS_P1;SDS_P2;PMS_P1;PMS_P2;Temp;Humidity;BMP_temperature;BMP_pressure;BME280_temperature;BME280_humidity;BME280_pressure;Samples;Min_cycle;Max_cycle;Signal;HPM_P1;HPM_P2
2020/12/31 00:00:06;;;;;;;28.23;14.53;;;;;;;3.70;91.31;98706.97;4996108;28;20038;-70
2020/12/31 00:02:34;;;;;;;24.42;12.70;;;;;;;3.64;90.96;98722.91;4997841;28;20042;-70
2020/12/31 00:05:02;;;;;;;25.48;13.65;;;;;;;3.57;90.81;98726.19;4998141;28;20062;-70
2020/12/31 00:07:30;;;;;;;24.98;13.02;;;;;;;3.54;90.72;98730.34;4997639;28;20068;-70
2020/12/31 00:09:58;;;;;;;26.02;12.73;;;;;;;3.39;91.41;98731.00;4997749;28;20046;-70
2020/12/31 00:12:25;;;;;;;23.92;11.80;;;;;;;3.25;91.13;98733.38;4997591;28;20034;-70
2020/12/31 00:14:54;;;;;;;26.80;13.15;;;;;;;3.24;90.69;98740.88;4997656;28;20053;-70
2020/12/31 00:17:22;;;;;;;30.60;14.93;;;;;;;3.35;91.42;98749.44;4997560;28;20042;-70
2020/12/31 00:19:49;;;;;;;33.13;16.55;;;;;;;3.44;91.42;98748.72;4997405;28;20049;-70
2020/12/31 00:22:17;;;;;;;31.77;17.17;;;;;;;3.53;90.55;98749.66;4997524;28;20042;-70
2020/12/31 00:24:45;;;;;;;26.42;13.85;;;;;;;3.42;91.02;98751.22;4997392;28;20046;-70
2020/12/31 00:27:12;;;;;;;27.52;13.85;;;;;;;3.33;90.61;98751.13;4997377;28;20066;-70
2020/12/31 00:29:40;;;;;;;25.40;13.60;;;;;;;3.35;91.41;98759.53;4997513;28;20074;-70
2020/12/31 00:32:09;;;;;;;28.90;13.95;;;;;;;3.29;90.76;98754.41;4997319;28;20050;-69
2020/12/31 00:34:36;;;;;;;30.17;14.25;;;;;;;3.31;90.87;98752.78;4997301;28;20050;-70
2020/12/31 00:37:04;;;;;;;23.15;12.43;;;;;;;3.27;91.44;98761.09;4996936;28;20058;-70
2020/12/31 00:39:32;;;;;;;25.52;12.27;;;;;;;3.29;91.42;98764.50;4997460;28;20122;-70
2020/12/31 00:41:59;;;;;;;30.50;13.73;;;;;;;3.21;90.59;98738.34;4997103;28;20038;-70
2020/12/31 00:44:27;;;;;;;26.02;14.23;;;;;;;3.55;91.44;98770.69;5012189;28;20050;-70
2020/12/31 00:46:54;;;;;;;24.83;12.65;;;;;;;3.56;91.43;98774.94;4997326;28;20039;-70
2020/12/31 00:49:23;;;;;;;21.10;11.75;;;;;;;3.60;90.97;98771.59;4995745;28;20126;-70
2020/12/31 00:51:52;;;;;;;20.88;10.38;;;;;;;3.73;90.96;98768.41;4995809;28;20558;-70
2020/12/31 00:54:20;;;;;;;20.27;10.05;;;;;;;3.77;90.66;98775.19;4997217;28;20432;-70
2020/12/31 00:56:49;;;;;;;22.17;10.23;;;;;;;3.74;90.82;98785.22;4995625;28;20050;-70
2020/12/31 00:59:18;;;;;;;21.85;11.05;;;;;;;3.67;91.11;98788.50;4995609;28;20291;-70
2020/12/31 01:01:46;;;;;;;21.85;10.75;;;;;;;3.73;91.11;98793.66;4996998;28;20089;-70
2020/12/31 01:04:15;;;;;;;20.40;9.82;;;;;;;3.70;91.11;98778.47;4996684;28;20129;-69
2020/12/31 01:06:43;;;;;;;20.38;9.02;;;;;;;3.62;90.50;98779.22;4996709;28;20125;-70
2020/12/31 01:09:11;;;;;;;22.73;9.90;;;;;;;3.45;90.79;98775.63;4996597;28;20573;-70
2020/12/31 01:11:40;;;;;;;16.40;8.48;;;;;;;3.17;90.65;98749.19;4995579;28;20392;-70
2020/12/31 01:14:08;;;;;;;16.15;8.55;;;;;;;3.42;90.40;98789.06;4996520;28;20080;-70
2020/12/31 01:16:36;;;;;;;18.95;9.02;;;;;;;3.37;91.05;98785.63;4996753;28;20050;-70
2020/12/31 01:19:05;;;;;;;16.58;8.43;;;;;;;3.36;90.48;98786.44;4996420;28;20050;-70
2020/12/31 01:21:33;;;;;;;18.45;7.95;;;;;;;3.31;90.43;98783.03;4996622;28;20133;-70
2020/12/31 01:24:01;;;;;;;16.88;7.50;;;;;;;3.18;90.43;98791.25;4996393;28;20050;-69
2020/12/31 01:26:31;;;;;;;16.75;6.70;;;;;;;2.64;90.48;98734.16;4996538;28;20047;-70
2020/12/31 01:29:00;;;;;;;17.95;7.30;;;;;;;2.94;90.36;98793.41;4996860;28;20050;-70
2020/12/31 01:31:27;;;;;;;15.68;8.02;;;;;;;2.88;91.14;98786.59;4996517;28;20042;-70
2020/12/31 01:33:55;;;;;;;14.93;7.43;;;;;;;2.84;90.44;98781.47;4996200;28;20443;-69
2020/12/31 01:36:23;;;;;;;15.13;7.28;;;;;;;2.62;90.19;98743.38;4995920;28;20560;-70
2020/12/31 01:38:51;;;;;;;14.07;6.72;;;;;;;2.61;90.68;98782.00;4995938;28;20058;-70
2020/12/31 01:41:24;;;;;;;15.32;6.85;;;;;;;2.46;90.31;98781.75;4996080;28;20050;-70
2020/12/31 01:43:57;;;;;;;17.13;7.30;;;;;;;2.41;90.64;98787.50;4996034;28;20058;-70
2020/12/31 01:46:25;;;;;;;15.98;6.95;;;;;;;2.41;90.47;98798.44;4996065;28;20057;-69
2020/12/31 01:48:53;;;;;;;16.13;7.88;;;;;;;2.48;89.86;98795.19;4995854;28;20050;-70
2020/12/31 01:51:21;;;;;;;14.70;7.22;;;;;;;2.45;90.30;98795.13;4995780;28;20052;-69
2020/12/31 01:53:48;;;;;;;11.55;5.93;;;;;;;2.40;90.17;98796.72;4995790;28;20043;-69
2020/12/31 01:56:21;;;;;;;12.90;6.13;;;;;;;2.36;90.63;98792.47;4995700;28;20099;-69
2020/12/31 01:58:49;;;;;;;14.27;6.97;;;;;;;2.39;90.36;98795.03;4995720;28;20050;-69
2020/12/31 02:01:17;;;;;;;14.45;6.35;;;;;;;2.26;90.23;98803.19;4995559;28;20042;-70
2020/12/31 02:03:45;;;;;;;12.98;6.50;;;;;;;2.22;89.56;98801.44;4995660;28;20042;-70
2020/12/31 02:06:13;;;;;;;15.00;6.68;;;;;;;2.30;90.15;98799.94;5010906;28;20047;-70
2020/12/31 02:08:44;;;;;;;14.77;6.95;;;;;;;2.44;90.52;98801.00;4995469;28;20038;-71
2020/12/31 02:11:14;;;;;;;14.13;6.88;;;;;;;2.39;90.29;98804.25;4995507;28;20076;-70
2020/12/31 02:13:42;;;;;;;15.05;6.43;;;;;;;2.35;90.38;98813.41;4995492;28;20125;-69
2020/12/31 02:16:12;;;;;;;14.52;6.68;;;;;;;2.34;90.35;98816.78;4995348;28;20461;-70
2020/12/31 02:18:45;;;;;;;15.02;6.75;;;;;;;2.36;90.54;98820.16;4995268;28;20050;-70
2020/12/31 02:21:18;;;;;;;14.55;6.85;;;;;;;2.39;90.12;98820.22;4995312;28;20046;-70
2020/12/31 02:23:48;;;;;;;16.05;6.22;;;;;;;2.44;89.95;98812.75;4995155;28;20061;-70
2020/12/31 02:26:17;;;;;;;13.93;6.10;;;;;;;2.40;90.04;98821.06;4995180;28;20046;-70
2020/12/31 02:28:46;;;;;;;12.75;5.75;;;;;;;2.39;90.30;98814.34;4995141;28;20496;-70
2020/12/31 02:31:13;;;;;;;13.55;5.88;;;;;;;2.25;89.53;98826.69;4995103;28;20496;-69
2020/12/31 02:33:44;;;;;;;14.05;6.43;;;;;;;2.25;89.86;98819.13;4995295;28;20050;-69
2020/12/31 02:36:13;;;;;;;13.07;6.47;;;;;;;2.04;89.71;98813.69;4994783;28;20053;-70
2020/12/31 02:38:41;;;;;;;14.20;6.63;;;;;;;2.09;90.07;98817.13;4994914;28;20056;-70
2020/12/31 02:41:10;;;;;;;14.50;6.55;;;;;;;2.14;89.96;98818.06;4994890;28;20050;-69
2020/12/31 02:43:39;;;;;;;9.40;4.22;;;;;;;2.10;89.62;98826.41;4994893;28;20073;-70
2020/12/31 02:46:08;;;;;;;15.05;6.47;;;;;;;2.06;89.53;98819.63;4995148;28;20440;-69
2020/12/31 02:48:36;;;;;;;12.43;6.05;;;;;;;1.73;89.88;98774.53;4994753;28;20504;-69
2020/12/31 02:51:04;;;;;;;9.13;5.10;;;;;;;1.94;89.59;98830.28;4994815;28;20046;-69
2020/12/31 02:53:32;;;;;;;12.45;5.53;;;;;;;1.88;89.75;98820.09;4994665;28;20047;-69
2020/12/31 02:56:00;;;;;;;11.73;4.97;;;;;;;1.83;89.80;98821.69;4994606;28;20560;-69
2020/12/31 02:58:29;;;;;;;12.25;6.30;;;;;;;1.90;89.91;98823.50;4994681;28;20452;-69
2020/12/31 03:00:57;;;;;;;12.52;5.68;;;;;;;1.93;88.97;98822.69;4994506;28;20145;-69
2020/12/31 03:03:25;;;;;;;11.65;5.63;;;;;;;1.81;89.32;98813.25;4994550;28;20055;-69
2020/12/31 03:05:52;;;;;;;13.88;5.60;;;;;;;1.76;89.80;98813.97;4994510;28;20052;-70
2020/12/31 03:08:20;;;;;;;11.75;5.70;;;;;;;1.75;89.83;98807.28;4994656;28;20053;-69
2020/12/31 03:10:48;;;;;;;13.52;6.20;;;;;;;1.80;89.70;98800.66;4994389;28;20053;-69
2020/12/31 03:13:16;;;;;;;13.07;5.65;;;;;;;1.68;89.62;98797.91;4994682;28;20048;-69
2020/12/31 03:15:44;;;;;;;13.45;6.32;;;;;;;1.58;89.14;98801.06;4994399;28;20611;-69
2020/12/31 03:18:12;;;;;;;11.55;5.35;;;;;;;1.64;89.21;98804.53;4994417;28;20045;-70
2020/12/31 03:20:43;;;;;;;10.95;5.35;;;;;;;1.57;89.60;98804.38;4994189;28;20050;-69
2020/12/31 03:23:12;;;;;;;13.95;6.25;;;;;;;1.63;89.19;98804.50;4994554;28;20069;-69
2020/12/31 03:25:41;;;;;;;16.00;6.35;;;;;;;1.65;89.19;98800.34;4994534;28;20046;-69
2020/12/31 03:28:09;;;;;;;11.82;6.03;;;;;;;1.64;89.24;98798.63;4994312;28;20089;-69
2020/12/31 03:30:37;;;;;;;15.57;6.28;;;;;;;1.56;89.21;98795.97;4994767;28;20370;-70
2020/12/31 03:33:06;;;;;;;13.20;5.07;;;;;;;1.67;88.99;98791.16;4994206;28;20130;-70
2020/12/31 03:35:41;;;;;;;16.88;6.68;;;;;;;1.51;89.66;98791.69;4994040;28;20427;-70
2020/12/31 03:38:09;;;;;;;13.18;6.28;;;;;;;1.47;89.77;98788.25;4994078;28;20057;-70
2020/12/31 03:40:37;;;;;;;13.15;6.85;;;;;;;1.61;89.72;98803.63;4994035;28;20488;-70
2020/12/31 03:43:05;;;;;;;13.35;6.45;;;;;;;1.46;89.23;98793.25;4994052;28;20035;-70
2020/12/31 03:45:34;;;;;;;16.52;6.78;;;;;;;1.39;89.32;98797.31;4994075;28;20061;-70
2020/12/31 03:48:02;;;;;;;14.98;6.15;;;;;;;1.35;89.33;98796.38;4994019;28;20038;-70
2020/12/31 03:50:31;;;;;;;13.73;6.35;;;;;;;1.35;89.47;98796.38;4994076;28;20047;-71
2020/12/31 03:52:58;;;;;;;12.40;6.65;;;;;;;1.44;89.64;98788.19;4993983;28;20058;-71
2020/12/31 03:55:26;;;;;;;16.38;6.75;;;;;;;1.35;89.55;98783.81;4993994;28;20113;-71
2020/12/31 03:57:54;;;;;;;18.67;7.05;;;;;;;1.27;89.84;98785.31;4993992;28;20401;-71
2020/12/31 04:00:21;;;;;;;15.18;6.32;;;;;;;1.34;89.29;98784.63;4993849;28;20047;-71
2020/12/31 04:02:49;;;;;;;17.60;7.88;;;;;;;1.31;89.27;98777.03;4994198;28;20038;-71
2020/12/31 04:05:16;;;;;;;16.48;7.72;;;;;;;1.27;89.44;98777.78;4993859;28;20496;-71
2020/12/31 04:07:45;;;;;;;19.02;8.95;;;;;;;1.39;89.80;98768.81;4993895;28;20057;-71
2020/12/31 04:10:13;;;;;;;19.23;8.63;;;;;;;1.30;89.76;98766.94;4994130;28;20042;-71
2020/12/31 04:12:40;;;;;;;23.33;11.52;;;;;;;1.32;89.82;98761.13;4993760;28;20066;-71
2020/12/31 04:15:08;;;;;;;17.58;8.65;;;;;;;1.23;89.04;98750.91;4993781;28;20050;-71
2020/12/31 04:17:36;;;;;;;18.88;9.20;;;;;;;1.12;89.42;98762.41;4993748;28;20049;-71
2020/12/31 04:20:05;;;;;;;29.15;14.35;;;;;;;1.06;89.27;98762.25;4993706;28;20492;-71
2020/12/31 04:22:32;;;;;;;26.00;14.80;;;;;;;1.00;89.97;98752.09;4994068;28;20038;-72
2020/12/31 04:25:01;;;;;;;32.85;18.35;;;;;;;1.07;90.08;98763.97;4993644;28;20062;-71
2020/12/31 04:27:29;;;;;;;41.78;23.13;;;;;;;1.11;89.61;98764.84;4993612;28;20038;-71
2020/12/31 04:29:56;;;;;;;35.40;19.77;;;;;;;0.96;89.29;98762.03;4993616;28;20050;-72
2020/12/31 04:32:24;;;;;;;35.85;20.25;;;;;;;0.98;89.66;98758.75;4993638;28;20030;-72
2020/12/31 04:34:52;;;;;;;36.17;19.30;;;;;;;1.02;89.96;98754.63;4993651;28;20047;-72
2020/12/31 04:37:20;;;;;;;36.05;17.98;;;;;;;0.89;89.72;98748.47;4993369;28;20054;-72
2020/12/31 04:39:48;;;;;;;34.30;19.30;;;;;;;0.91;89.83;98756.06;4993444;28;20045;-72
2020/12/31 04:42:17;;;;;;;32.60;20.00;;;;;;;0.98;90.04;98757.88;4993567;28;20061;-72
2020/12/31 04:44:46;;;;;;;28.42;16.02;;;;;;;1.05;89.54;98765.59;4993522;28;20093;-72
2020/12/31 04:47:20;;;;;;;33.67;16.83;;;;;;;0.95;89.30;98753.63;4995730;28;20042;-71
2020/12/31 04:49:51;;;;;;;28.02;16.30;;;;;;;1.02;90.06;98765.50;4997002;28;20121;-72
2020/12/31 04:52:19;;;;;;;28.15;15.82;;;;;;;0.78;89.45;98764.97;4997223;28;20050;-72
2020/12/31 04:54:47;;;;;;;31.08;15.82;;;;;;;0.80;89.87;98763.34;4996936;28;20039;-71
2020/12/31 04:57:15;;;;;;;30.60;14.90;;;;;;;0.60;89.57;98747.00;4996861;28;20047;-72
2020/12/31 04:59:44;;;;;;;25.73;13.25;;;;;;;0.88;89.85;98771.91;4996764;28;20047;-72
2020/12/31 05:02:11;;;;;;;31.17;14.65;;;;;;;0.83;89.69;98768.44;4996683;28;20039;-72
2020/12/31 05:04:40;;;;;;;28.67;14.15;;;;;;;0.91;89.65;98768.63;5011964;28;20101;-72
2020/12/31 05:07:08;;;;;;;26.67;14.00;;;;;;;0.70;89.92;98726.28;4996708;28;20495;-72
2020/12/31 05:09:35;;;;;;;24.40;13.30;;;;;;;0.96;89.57;98770.38;4996592;28;20112;-72
2020/12/31 05:12:04;;;;;;;25.55;13.63;;;;;;;0.75;89.92;98749.81;4996626;28;20047;-72
2020/12/31 05:14:35;;;;;;;25.35;12.95;;;;;;;0.83;89.68;98768.44;4996576;28;20492;-71
2020/12/31 05:17:09;;;;;;;21.48;11.00;;;;;;;0.77;89.45;98780.84;4996521;28;20524;-72
2020/12/31 05:19:38;;;;;;;25.60;12.45;;;;;;;0.89;89.56;98783.63;4996504;28;20482;-71
2020/12/31 05:22:11;;;;;;;24.08;11.32;;;;;;;0.74;89.37;98768.22;4996313;28;20391;-72
2020/12/31 05:24:39;;;;;;;22.95;11.13;;;;;;;0.76;90.00;98760.72;4996419;28;20104;-72
2020/12/31 05:27:11;;;;;;;;;;;;;;;0.66;89.67;98784.75;4996736;28;20046;-71
2020/12/31 05:29:39;;;;;;;21.33;11.23;;;;;;;0.79;89.85;98785.91;4996366;28;19921;-72
2020/12/31 05:32:07;;;;;;;22.45;10.07;;;;;;;0.86;90.03;98793.63;4996251;28;20118;-71
2020/12/31 05:34:34;;;;;;;23.63;10.52;;;;;;;0.61;89.97;98777.13;4996208;28;20038;-71
2020/12/31 05:37:15;;;;;;;21.73;9.93;;;;;;;0.66;89.83;98789.78;4996166;28;20126;-71
2020/12/31 05:39:48;;;;;;;20.92;10.57;;;;;;;0.81;90.14;98789.28;4996354;28;20072;-72
2020/12/31 05:42:20;;;;;;;21.92;10.35;;;;;;;0.74;89.92;98793.34;4996428;28;20134;-72
2020/12/31 05:44:53;;;;;;;20.70;9.80;;;;;;;0.65;89.52;98795.59;4995979;28;20061;-72
2020/12/31 05:47:21;;;;;;;20.92;10.10;;;;;;;0.61;90.25;98801.38;4996030;28;20109;-72
2020/12/31 05:49:49;;;;;;;20.30;10.23;;;;;;;0.68;89.84;98798.19;4995963;28;20124;-72
2020/12/31 05:52:33;;;;;;;21.48;10.65;;;;;;;0.67;90.00;98801.53;4995821;28;20524;-72
2020/12/31 05:55:04;;;;;;;24.55;10.55;;;;;;;0.70;89.57;98798.25;4995817;28;20101;-72
2020/12/31 05:57:44;;;;;;;21.88;10.38;;;;;;;0.78;89.68;98800.13;4995332;28;20054;-72
2020/12/31 06:00:14;;;;;;;25.70;11.63;;;;;;;0.79;89.85;98796.81;4995604;28;20161;-71
2020/12/31 06:02:47;;;;;;;25.67;10.77;;;;;;;0.68;89.79;98810.75;4995628;28;20050;-71
2020/12/31 06:05:16;;;;;;;24.73;11.90;;;;;;;0.74;90.03;98800.88;4995574;28;20101;-72
2020/12/31 06:07:47;;;;;;;29.13;10.35;;;;;;;0.82;89.53;98806.91;4995632;28;20086;-72
2020/12/31 06:10:19;;;;;;;24.65;11.93;;;;;;;0.78;90.00;98810.16;4994573;28;20104;-71
2020/12/31 06:12:50;;;;;;;28.42;12.00;;;;;;;0.83;90.35;98811.13;4995562;28;20053;-72
2020/12/31 06:15:22;;;;;;;26.17;12.90;;;;;;;0.85;89.78;98808.63;4995442;28;20472;-72
2020/12/31 06:17:50;;;;;;;26.27;12.43;;;;;;;0.94;90.13;98807.19;4995460;28;20444;-72
2020/12/31 06:20:19;;;;;;;28.15;12.38;;;;;;;0.92;89.71;98810.47;4995556;28;20125;-71
2020/12/31 06:22:59;;;;;;;18.75;8.30;;;;;;;0.88;89.66;98812.06;4995173;28;20126;-72
2020/12/31 06:25:34;;;;;;;28.42;11.82;;;;;;;1.01;89.73;98806.50;4995324;28;20066;-72
2020/12/31 06:28:06;;;;;;;23.95;10.43;;;;;;;1.08;90.66;98812.53;4995123;28;20124;-72
2020/12/31 06:30:35;;;;;;;25.73;12.15;;;;;;;1.09;90.34;98816.72;4995216;28;20068;-72
2020/12/31 06:33:07;;;;;;;26.60;11.02;;;;;;;0.95;89.86;98813.06;4995126;28;20078;-71
2020/12/31 06:35:35;;;;;;;25.67;11.02;;;;;;;0.92;90.08;98813.84;4995379;28;20045;-71
2020/12/31 06:38:04;;;;;;;22.17;10.35;;;;;;;0.99;90.00;98810.66;4994691;28;20057;-72
2020/12/31 06:40:35;;;;;;;26.42;11.55;;;;;;;0.88;90.14;98802.03;4995064;28;20043;-71
2020/12/31 06:43:06;;;;;;;27.85;12.15;;;;;;;0.81;89.97;98805.22;4994988;28;20053;-72
2020/12/31 06:45:35;;;;;;;27.45;12.15;;;;;;;0.76;90.32;98811.78;4994914;28;20050;-72
2020/12/31 06:48:03;;;;;;;33.60;14.60;;;;;;;0.79;89.91;98801.84;4995113;28;20048;-72
2020/12/31 06:50:37;;;;;;;29.33;14.98;;;;;;;0.73;89.96;98811.72;4994718;28;20512;-72
2020/12/31 06:53:27;;;;;;;32.17;15.27;;;;;;;0.67;89.74;98802.38;4994835;28;20054;-71
2020/12/31 06:55:55;;;;;;;35.60;14.38;;;;;;;0.77;90.02;98810.97;4994869;28;20483;-72
2020/12/31 06:58:24;;;;;;;26.05;11.52;;;;;;;0.34;89.76;98740.47;4994554;28;20077;-71
2020/12/31 07:00:52;;;;;;;18.17;8.07;;;;;;;0.84;89.77;98809.47;4994638;28;20125;-71
2020/12/31 07:03:38;;;;;;;22.98;9.52;;;;;;;0.78;89.87;98805.13;4994503;28;20408;-72
2020/12/31 07:06:14;;;;;;;24.75;9.95;;;;;;;0.87;89.95;98809.50;4994928;28;20492;-72
2020/12/31 07:08:44;;;;;;;19.50;9.38;;;;;;;0.83;90.00;98811.13;4993879;28;20042;-72
2020/12/31 07:11:12;;;;;;;23.83;9.35;;;;;;;0.79;89.90;98816.91;4995055;28;20051;-72
2020/12/31 07:13:40;;;;;;;20.58;8.77;;;;;;;0.76;89.95;98809.28;4994456;28;20038;-72
2020/12/31 07:16:08;;;;;;;18.80;9.00;;;;;;;0.85;89.93;98806.97;4994362;28;20038;-72
2020/12/31 07:18:41;;;;;;;23.75;8.93;;;;;;;0.92;90.16;98808.81;5009610;28;20149;-72
2020/12/31 07:21:09;;;;;;;22.55;8.73;;;;;;;0.92;90.18;98808.81;4993195;28;20125;-72
2020/12/31 07:23:40;;;;;;;20.38;8.88;;;;;;;1.00;89.41;98814.88;4994195;28;20054;-72
2020/12/31 07:26:08;;;;;;;19.08;8.98;;;;;;;0.91;90.07;98817.16;4993145;28;20137;-72
2020/12/31 07:28:36;;;;;;;19.63;9.00;;;;;;;1.02;90.24;98813.25;4994088;28;20047;-72
2020/12/31 07:31:04;;;;;;;24.15;9.68;;;;;;;0.94;90.02;98778.69;4994237;28;20077;-72
2020/12/31 07:33:35;;;;;;;19.95;9.60;;;;;;;1.22;89.73;98814.50;4993211;28;20038;-72
2020/12/31 07:36:12;;;;;;;18.77;8.75;;;;;;;1.13;90.16;98814.31;4994186;28;20050;-72
2020/12/31 07:38:41;;;;;;;23.30;9.30;;;;;;;1.19;89.62;98823.66;4994162;28;20058;-72
2020/12/31 07:41:18;;;;;;;20.05;9.18;;;;;;;1.11;89.63;98820.97;4994340;28;20046;-72
2020/12/31 07:43:46;;;;;;;17.77;8.63;;;;;;;1.19;89.90;98816.97;4994159;28;20097;-72
2020/12/31 07:46:15;;;;;;;21.58;9.05;;;;;;;1.30;89.31;98820.56;4994030;28;20042;-72
2020/12/31 07:48:43;;;;;;;;;;;;;;;1.30;90.35;98827.25;4994461;28;20462;-72
2020/12/31 07:51:11;;;;;;;20.73;9.68;;;;;;;1.35;89.89;98824.03;4993930;28;19929;-72
2020/12/31 07:53:39;;;;;;;18.15;9.55;;;;;;;1.43;90.09;98829.22;4994024;28;20049;-72
2020/12/31 07:56:11;;;;;;;23.25;9.57;;;;;;;0.98;89.58;98758.75;4993992;28;20058;-72
2020/12/31 07:58:43;;;;;;;20.23;9.77;;;;;;;1.45;89.93;98821.72;4993958;28;20416;-72
2020/12/31 08:01:12;;;;;;;24.23;9.95;;;;;;;1.50;89.98;98823.50;4993900;28;20078;-72
2020/12/31 08:03:39;;;;;;;22.15;10.00;;;;;;;1.63;89.47;98824.63;4993159;28;20034;-72
2020/12/31 08:06:08;;;;;;;21.90;9.43;;;;;;;1.75;89.49;98817.31;4992783;28;20053;-72
2020/12/31 08:08:36;;;;;;;17.55;9.13;;;;;;;1.73;89.82;98814.75;4992245;28;20039;-71
2020/12/31 08:11:07;;;;;;;18.98;9.30;;;;;;;1.75;89.40;98814.81;4993749;28;20038;-71
2020/12/31 08:13:35;;;;;;;21.17;9.35;;;;;;;1.70;89.93;98823.94;4992757;28;20059;-71
2020/12/31 08:16:04;;;;;;;19.95;9.13;;;;;;;1.73;89.40;98839.06;4993821;28;20042;-71
2020/12/31 08:18:32;;;;;;;16.67;8.13;;;;;;;1.79;89.68;98824.09;4992647;28;20097;-71
2020/12/31 08:21:05;;;;;;;21.13;10.20;;;;;;;1.88;90.08;98826.78;4995556;28;20092;-70
2020/12/31 08:23:38;;;;;;;22.95;9.82;;;;;;;1.84;89.68;98827.56;4997456;28;20046;-71
2020/12/31 08:26:09;;;;;;;23.67;10.15;;;;;;;1.96;89.63;98822.78;4997290;28;20105;-71
2020/12/31 08:28:38;;;;;;;21.02;10.10;;;;;;;2.00;89.68;98830.41;4997420;28;20050;-71
2020/12/31 08:31:11;;;;;;;21.65;10.55;;;;;;;2.06;89.83;98823.78;4997719;28;20202;-71
2020/12/31 08:33:41;;;;;;;22.45;9.70;;;;;;;2.16;89.11;98829.00;4996172;28;20129;-71
2020/12/31 08:36:09;;;;;;;22.40;10.10;;;;;;;2.22;89.86;98831.66;4997207;28;20489;-71
2020/12/31 08:38:38;;;;;;;22.75;10.25;;;;;;;2.34;89.26;98826.84;4997103;28;20116;-70
2020/12/31 08:41:08;;;;;;;22.55;10.75;;;;;;;2.30;89.44;98827.63;4997105;28;20069;-70
2020/12/31 08:43:37;;;;;;;21.67;10.73;;;;;;;2.54;89.80;98829.72;4997076;28;20061;-71
2020/12/31 08:46:07;;;;;;;21.40;9.73;;;;;;;2.67;89.46;98827.41;4997085;28;20050;-70
2020/12/31 08:48:37;;;;;;;20.30;10.32;;;;;;;2.73;89.67;98829.19;4997182;28;20133;-69
2020/12/31 08:51:07;;;;;;;18.48;9.38;;;;;;;2.71;89.27;98829.16;4997101;28;20079;-69
2020/12/31 08:53:54;;;;;;;21.42;10.13;;;;;;;2.74;89.51;98833.41;4997254;28;20100;-69
2020/12/31 08:56:25;;;;;;;19.60;9.60;;;;;;;2.60;89.31;98810.50;4996889;28;20085;-69
2020/12/31 08:59:06;;;;;;;22.67;10.43;;;;;;;2.94;88.70;98826.16;4996925;28;20125;-69
2020/12/31 09:01:34;;;;;;;20.25;9.75;;;;;;;3.15;89.21;98826.47;4995977;28;20547;-69
2020/12/31 09:04:06;;;;;;;20.70;9.05;;;;;;;3.41;89.38;98825.16;4996481;28;20046;-69
2020/12/31 09:06:57;;;;;;;16.55;8.95;;;;;;;3.57;88.76;98817.00;4936897;29;20047;-70
2020/12/31 09:09:27;;;;;;;18.80;9.20;;;;;;;3.75;88.78;98817.22;4936891;29;20556;-70
2020/12/31 09:11:58;;;;;;;16.77;8.50;;;;;;;3.96;88.28;98814.94;4936722;29;20044;-69
2020/12/31 09:14:27;;;;;;;18.00;8.15;;;;;;;4.15;87.90;98812.63;4936768;29;20083;-69
2020/12/31 09:16:55;;;;;;;13.43;6.07;;;;;;;4.22;87.27;98815.25;4936594;29;20075;-69
2020/12/31 09:19:25;;;;;;;15.73;7.57;;;;;;;4.19;87.37;98819.41;4936542;29;20044;-69
2020/12/31 09:21:52;;;;;;;12.65;6.45;;;;;;;4.22;86.60;98805.13;4936412;29;20353;-70
2020/12/31 09:24:22;;;;;;;12.68;6.75;;;;;;;4.14;86.87;98805.88;4936583;29;20138;-69
2020/12/31 09:26:52;;;;;;;13.48;5.95;;;;;;;4.28;86.34;98814.44;4936512;29;20075;-69
2020/12/31 09:29:20;;;;;;;15.57;6.85;;;;;;;4.39;86.06;98807.84;4936193;29;20108;-70
2020/12/31 09:31:49;;;;;;;8.80;4.90;;;;;;;4.22;85.39;98795.03;4934740;29;20402;-70
2020/12/31 09:34:16;;;;;;;13.95;6.35;;;;;;;4.17;84.58;98803.38;4935192;29;20047;-70
2020/12/31 09:36:45;;;;;;;11.82;6.28;;;;;;;4.03;84.30;98801.56;4935740;29;20044;-70
2020/12/31 09:39:13;;;;;;;13.73;6.57;;;;;;;4.07;84.13;98794.88;4934521;29;20043;-70
2020/12/31 09:41:41;;;;;;;17.98;7.55;;;;;;;4.01;83.65;98799.84;4936020;29;20051;-70
2020/12/31 09:44:09;;;;;;;17.08;8.23;;;;;;;3.86;84.03;98800.50;4969451;28;20093;-70
2020/12/31 09:46:37;;;;;;;14.68;7.95;;;;;;;3.79;84.08;98797.94;4995922;28;20043;-70
2020/12/31 09:49:05;;;;;;;15.48;7.57;;;;;;;3.94;84.00;98793.03;4994894;28;20397;-70
2020/12/31 09:51:34;;;;;;;14.65;7.68;;;;;;;4.01;84.61;98784.69;4995220;28;20070;-70
2020/12/31 09:54:02;;;;;;;12.70;7.45;;;;;;;4.02;84.38;98787.25;4995844;28;20051;-70
2020/12/31 09:56:31;;;;;;;14.85;7.10;;;;;;;4.10;85.03;98789.00;4995786;28;20044;-70
2020/12/31 09:58:58;;;;;;;13.90;5.85;;;;;;;4.28;84.88;98790.03;5010915;28;20046;-70
2020/12/31 10:01:27;;;;;;;11.27;5.85;;;;;;;4.48;83.92;98788.56;4995861;28;20089;-70
2020/12/31 10:03:54;;;;;;;11.55;5.63;;;;;;;4.52;83.25;98789.41;4995613;28;20493;-69
2020/12/31 10:06:23;;;;;;;9.50;5.22;;;;;;;4.48;81.68;98788.56;4995611;28;20499;-70
2020/12/31 10:08:51;;;;;;;11.30;5.38;;;;;;;4.51;81.88;98782.69;4995526;28;20070;-70
2020/12/31 10:11:20;;;;;;;9.40;4.88;;;;;;;4.55;81.03;98779.34;4995371;28;20583;-70
2020/12/31 10:13:48;;;;;;;11.35;6.03;;;;;;;4.55;80.96;98784.38;4994420;28;20038;-69
2020/12/31 10:16:16;;;;;;;9.75;4.93;;;;;;;4.58;80.67;98769.28;4994235;28;20507;-70
2020/12/31 10:18:43;;;;;;;9.85;5.18;;;;;;;4.63;80.06;98767.63;4995243;28;20459;-70
2020/12/31 10:21:13;;;;;;;10.18;5.05;;;;;;;4.65;79.64;98765.94;4995213;28;20496;-70
2020/12/31 10:23:41;;;;;;;9.98;5.38;;;;;;;4.72;79.20;98767.69;4995317;28;20146;-70
2020/12/31 10:26:09;;;;;;;9.10;5.18;;;;;;;4.80;79.51;98761.00;4994607;28;20050;-70
2020/12/31 10:28:37;;;;;;;9.00;4.90;;;;;;;4.86;79.12;98756.00;4995082;28;20054;-70
2020/12/31 10:31:05;;;;;;;11.25;5.22;;;;;;;5.00;78.92;98744.28;4995069;28;20054;-70
2020/12/31 10:33:33;;;;;;;9.30;4.95;;;;;;;5.13;78.06;98743.53;4995055;28;20047;-70
2020/12/31 10:36:01;;;;;;;8.15;4.43;;;;;;;5.35;77.96;98747.03;4995009;28;20052;-70
2020/12/31 10:38:29;;;;;;;10.60;4.75;;;;;;;5.54;76.99;98743.75;4994823;28;20058;-70
2020/12/31 10:40:57;;;;;;;8.65;5.30;;;;;;;5.83;77.20;98746.38;4995228;28;20054;-70
2020/12/31 10:43:28;;;;;;;7.85;4.70;;;;;;;5.95;75.63;98741.38;4994914;28;20046;-70
2020/12/31 10:45:56;;;;;;;11.02;5.35;;;;;;;5.98;74.77;98741.34;4994895;28;20090;-70
2020/12/31 10:48:24;;;;;;;12.27;4.63;;;;;;;6.16;74.97;98726.22;4994951;28;20519;-70
2020/12/31 10:50:52;;;;;;;10.27;4.60;;;;;;;6.27;73.98;98727.06;4994769;28;20080;-70
2020/12/31 10:53:19;;;;;;;9.45;4.80;;;;;;;6.35;73.54;98717.78;4994614;28;20069;-69
2020/12/31 10:55:48;;;;;;;8.85;4.57;;;;;;;5.37;73.84;98543.78;4994703;28;20493;-70
2020/12/31 10:58:15;;;;;;;11.13;4.60;;;;;;;6.55;73.51;98717.78;4994523;28;20080;-70
2020/12/31 11:00:43;;;;;;;8.43;3.97;;;;;;;6.58;73.32;98713.53;5007055;28;20117;-70
2020/12/31 11:03:12;;;;;;;8.80;4.25;;;;;;;6.63;72.10;98708.47;4994615;28;20121;-70
2020/12/31 11:05:40;;;;;;;8.18;4.38;;;;;;;6.84;72.51;98705.91;4994500;28;20070;-69
2020/12/31 11:08:08;;;;;;;8.93;4.68;;;;;;;6.92;71.18;98698.28;4994488;28;20118;-69
2020/12/31 11:10:35;;;;;;;7.93;4.43;;;;;;;6.89;70.58;98690.66;4994423;28;20403;-69
2020/12/31 11:13:05;;;;;;;6.95;3.55;;;;;;;7.13;70.66;98698.22;4994444;28;20129;-69
2020/12/31 11:15:32;;;;;;;8.45;3.97;;;;;;;7.37;70.57;98693.06;4994629;28;20439;-69
2020/12/31 11:18:01;;;;;;;9.55;5.00;;;;;;;7.42;70.12;98673.59;4994649;28;20046;-69
2020/12/31 11:20:30;;;;;;;8.27;4.25;;;;;;;7.60;70.16;98687.91;4994203;28;20042;-69
2020/12/31 11:22:57;;;;;;;6.35;3.03;;;;;;;7.80;69.30;98678.47;4994666;28;20053;-69
2020/12/31 11:25:25;;;;;;;6.30;3.10;;;;;;;7.58;67.25;98642.22;4994341;28;20054;-69
2020/12/31 11:27:53;;;;;;;5.82;2.97;;;;;;;7.82;68.10;98669.16;4994252;28;20121;-69
2020/12/31 11:30:21;;;;;;;5.82;2.78;;;;;;;7.73;67.55;98657.34;4994285;28;20526;-69
2020/12/31 11:32:49;;;;;;;6.15;2.70;;;;;;;7.79;67.13;98664.94;4994275;28;20121;-69
2020/12/31 11:35:16;;;;;;;5.40;2.10;;;;;;;7.82;66.40;98649.66;4994664;28;20066;-69
2020/12/31 11:37:45;;;;;;;3.85;2.03;;;;;;;8.33;67.25;98670.50;4993977;28;20150;-69
2020/12/31 11:40:13;;;;;;;3.38;1.63;;;;;;;8.58;66.14;98656.72;4994155;28;20097;-69